createdAt,value
2022-07-29T00:01:33.100Z,60.78
2022-07-29T00:06:41.325Z,60.73
2022-07-29T00:11:50.013Z,60.91
2022-07-29T00:16:58.518Z,60.93
2022-07-29T00:22:06.419Z,61.23
2022-07-29T00:27:14.331Z,61.42
2022-07-29T00:32:22.370Z,61.18
2022-07-29T00:37:30.504Z,61.40
2022-07-29T00:42:46.431Z,61.21
2022-07-29T00:47:54.436Z,61.46
2022-07-29T00:53:02.881Z,61.14
2022-07-29T00:58:11.406Z,61.84
2022-07-29T01:03:19.819Z,61.95
2022-07-29T01:08:28.625Z,62.26
2022-07-29T01:13:37.631Z,62.13
2022-07-29T01:18:49.777Z,62.50
2022-07-29T01:24:21.029Z,62.41
2022-07-29T01:29:35.975Z,62.39
2022-07-29T01:34:53.619Z,62.69
2022-07-29T01:40:04.578Z,62.85
2022-07-29T01:45:18.570Z,62.51
2022-07-29T01:50:31.287Z,62.91
2022-07-29T01:55:41.628Z,63.18
2022-07-29T02:00:51.417Z,63.18
2022-07-29T02:06:02.698Z,63.08
2022-07-29T02:11:11.765Z,63.26
2022-07-29T02:16:23.986Z,63.30
2022-07-29T02:21:35.779Z,63.04
2022-07-29T02:26:45.798Z,63.18
2022-07-29T02:31:56.512Z,62.97
2022-07-29T02:37:06.388Z,63.12
2022-07-29T02:42:18.182Z,63.07
2022-07-29T02:47:41.429Z,63.19
2022-07-29T02:52:56.816Z,63.21
2022-07-29T02:58:11.897Z,63.06
2022-07-29T03:03:21.727Z,62.98
2022-07-29T03:08:31.308Z,63.29
2022-07-29T03:13:40.294Z,63.48
2022-07-29T03:18:49.551Z,63.29
2022-07-29T03:23:58.624Z,63.68
2022-07-29T03:29:06.667Z,63.51
2022-07-29T03:34:15.366Z,64.10
2022-07-29T03:39:27.695Z,64.29
2022-07-29T03:44:37.626Z,64.42
2022-07-29T03:49:49.335Z,64.50
2022-07-29T03:54:57.707Z,65.05
2022-07-29T04:00:07.248Z,65.61
2022-07-29T04:05:19.742Z,65.61
2022-07-29T04:10:31.743Z,66.10
2022-07-29T04:15:41.293Z,66.55
2022-07-29T04:20:49.964Z,67.01
2022-07-29T04:25:58.500Z,66.79
2022-07-29T04:31:06.902Z,66.91
2022-07-29T04:36:26.880Z,67.03
2022-07-29T04:41:38.507Z,67.30
2022-07-29T04:46:46.760Z,67.67
2022-07-29T04:51:55.173Z,68.48
2022-07-29T04:57:03.618Z,69.05
2022-07-29T05:02:11.758Z,69.31
2022-07-29T05:07:20.198Z,69.52
2022-07-29T05:12:29.055Z,69.91
2022-07-29T05:17:37.387Z,69.79
2022-07-29T05:22:45.508Z,69.64
2022-07-29T05:27:54.835Z,69.34
2022-07-29T05:33:02.969Z,68.74
2022-07-29T05:38:11.018Z,68.05
2022-07-29T05:43:19.023Z,67.29
2022-07-29T05:48:27.342Z,66.70
2022-07-29T05:53:35.462Z,65.83
2022-07-29T05:58:43.689Z,64.83
2022-07-29T06:03:52.239Z,64.02
2022-07-29T06:09:00.294Z,62.83
2022-07-29T06:14:21.202Z,61.56
2022-07-29T06:19:30.222Z,60.71
2022-07-29T06:24:42.821Z,59.99
2022-07-29T06:29:51.364Z,59.22
2022-07-29T06:35:24.448Z,58.65
2022-07-29T06:40:45.605Z,57.97
2022-07-29T06:45:53.693Z,57.53
2022-07-29T06:51:03.261Z,57.67
2022-07-29T06:56:14.044Z,57.20
2022-07-29T07:01:22.773Z,56.71
2022-07-29T07:06:31.205Z,56.03
2022-07-29T07:11:39.833Z,55.61
2022-07-29T07:16:48.013Z,55.27
2022-07-29T07:21:55.363Z,54.73
2022-07-29T07:27:04.044Z,54.53
2022-07-29T07:32:14.615Z,54.29
2022-07-29T07:37:23.591Z,53.89
2022-07-29T07:42:32.000Z,53.80
2022-07-29T07:47:40.764Z,53.72
2022-07-29T07:52:59.141Z,53.61
2022-07-29T07:58:08.142Z,52.95
2022-07-29T08:03:17.373Z,52.34
2022-07-29T08:08:26.392Z,51.42
2022-07-29T08:13:35.266Z,50.78
2022-07-29T08:18:45.508Z,50.45
2022-07-29T08:24:00.642Z,50.47
2022-07-29T08:29:09.840Z,50.05
2022-07-29T08:34:18.051Z,49.55
2022-07-29T08:39:26.720Z,49.32
2022-07-29T08:44:37.098Z,49.19
2022-07-29T08:49:46.542Z,49.17
2022-07-29T08:54:55.888Z,49.07
2022-07-29T09:00:08.188Z,48.90
2022-07-29T09:05:21.184Z,48.45
2022-07-29T09:10:29.359Z,48.43
2022-07-29T09:15:37.403Z,48.19
2022-07-29T09:21:15.005Z,48.53
2022-07-29T09:26:31.629Z,48.89
2022-07-29T09:31:42.033Z,48.67
2022-07-29T09:36:53.366Z,48.34
2022-07-29T09:42:03.851Z,48.31
2022-07-29T09:47:12.415Z,47.98
2022-07-29T09:52:20.601Z,47.86
2022-07-29T09:57:31.129Z,47.26
2022-07-29T10:02:40.917Z,47.29
2022-07-29T10:07:57.173Z,47.45
2022-07-29T10:13:13.453Z,47.24
2022-07-29T10:18:24.542Z,47.00
2022-07-29T10:23:47.130Z,47.10
2022-07-29T10:28:56.484Z,46.57
2022-07-29T10:34:17.911Z,46.43
2022-07-29T10:39:49.690Z,45.90
2022-07-29T10:44:59.304Z,45.94
2022-07-29T10:50:12.816Z,46.07
2022-07-29T10:55:43.051Z,45.92
2022-07-29T11:00:54.204Z,45.38
2022-07-29T11:06:02.103Z,45.34
2022-07-29T11:11:43.898Z,44.78
2022-07-29T11:17:08.716Z,43.95
2022-07-29T11:22:35.605Z,43.82
2022-07-29T11:27:44.657Z,43.57
2022-07-29T11:32:54.656Z,43.87
2022-07-29T11:38:29.297Z,43.43
2022-07-29T11:43:53.821Z,43.20
2022-07-29T11:49:03.542Z,43.05
2022-07-29T11:54:27.227Z,42.72
2022-07-29T11:59:43.104Z,42.67
2022-07-29T12:04:58.617Z,42.26
2022-07-29T12:10:11.450Z,41.55
2022-07-29T12:15:46.286Z,41.57
2022-07-29T12:21:05.192Z,41.55
2022-07-29T12:26:25.397Z,41.48
2022-07-29T12:31:43.517Z,41.19
2022-07-29T12:36:53.155Z,41.02
2022-07-29T12:42:04.206Z,40.97
2022-07-29T12:47:13.076Z,40.69
2022-07-29T12:52:35.022Z,40.47
2022-07-29T12:57:53.634Z,39.88
2022-07-29T13:03:03.672Z,39.36
2022-07-29T13:08:29.640Z,38.94
2022-07-29T13:14:05.738Z,38.75
2022-07-29T13:19:16.587Z,38.75
2022-07-29T13:24:24.630Z,39.22
2022-07-29T13:29:33.327Z,39.04
2022-07-29T13:34:42.022Z,38.82
2022-07-29T13:39:53.017Z,38.70
2022-07-29T13:45:02.484Z,38.61
2022-07-29T13:50:12.755Z,38.65
2022-07-29T13:55:21.028Z,38.92
2022-07-29T14:00:29.122Z,38.95
2022-07-29T14:05:38.811Z,38.96
2022-07-29T14:10:47.269Z,39.09
2022-07-29T14:15:56.300Z,39.15
2022-07-29T14:21:05.088Z,39.05
2022-07-29T14:31:47.719Z,38.89
2022-07-29T14:36:57.367Z,39.10
2022-07-29T14:42:05.401Z,39.28
2022-07-29T14:47:13.788Z,39.23
2022-07-29T14:52:23.135Z,38.82
2022-07-29T14:57:31.355Z,39.04
2022-07-29T15:03:00.347Z,39.02
2022-07-29T15:08:09.642Z,38.62
2022-07-29T15:13:18.810Z,38.80
2022-07-29T15:18:27.461Z,38.74
2022-07-29T15:23:37.698Z,38.57
2022-07-29T15:28:46.178Z,38.41
2022-07-29T15:33:57.643Z,38.59
2022-07-29T15:39:08.641Z,38.35
2022-07-29T15:44:17.330Z,38.62
2022-07-29T15:49:47.361Z,38.63
2022-07-29T15:54:59.265Z,38.71
2022-07-29T16:00:09.248Z,38.66
2022-07-29T16:05:17.896Z,38.71
2022-07-29T16:10:26.664Z,38.81
2022-07-29T16:15:35.153Z,38.81
2022-07-29T16:20:43.460Z,38.80
2022-07-29T16:26:01.281Z,38.69
2022-07-29T16:31:11.860Z,38.88
2022-07-29T16:36:20.899Z,38.98
2022-07-29T16:41:30.162Z,39.02
2022-07-29T16:46:39.006Z,39.03
2022-07-29T16:51:49.361Z,39.08
2022-07-29T16:57:01.141Z,39.07
2022-07-29T17:02:10.445Z,39.13
2022-07-29T17:07:19.639Z,39.10
2022-07-29T17:12:28.010Z,39.08
2022-07-29T17:17:38.903Z,39.17
2022-07-29T17:22:47.771Z,39.32
2022-07-29T17:28:00.548Z,39.41
2022-07-29T17:33:09.296Z,39.63
2022-07-29T17:38:18.210Z,39.52
2022-07-29T17:43:26.898Z,39.71
2022-07-29T17:48:35.729Z,39.63
2022-07-29T17:53:43.901Z,39.75
2022-07-29T17:58:52.439Z,39.93
2022-07-29T18:04:00.489Z,40.17
2022-07-29T18:09:08.421Z,40.42
2022-07-29T18:14:17.495Z,40.67
2022-07-29T18:19:25.678Z,41.08
2022-07-29T18:24:34.428Z,41.53
2022-07-29T18:29:42.536Z,42.14
2022-07-29T18:34:50.590Z,42.47
2022-07-29T18:39:59.636Z,42.81
2022-07-29T18:45:12.115Z,43.11
2022-07-29T18:50:29.966Z,43.56
2022-07-29T18:55:38.281Z,43.73
2022-07-29T19:00:46.802Z,43.83
2022-07-29T19:05:55.992Z,43.99
2022-07-29T19:11:04.254Z,44.55
2022-07-29T19:16:14.371Z,44.93
2022-07-29T19:21:22.770Z,45.39
2022-07-29T19:26:31.260Z,45.74
2022-07-29T19:31:40.679Z,46.26
2022-07-29T19:36:49.791Z,46.58
2022-07-29T19:42:02.926Z,46.89
2022-07-29T19:47:12.047Z,47.32
2022-07-29T19:52:27.249Z,47.93
2022-07-29T19:57:41.117Z,48.34
2022-07-29T20:02:52.232Z,48.55
2022-07-29T20:08:00.745Z,48.83
2022-07-29T20:13:09.792Z,49.11
2022-07-29T20:18:18.594Z,49.54
2022-07-29T20:23:27.893Z,49.90
2022-07-29T20:28:45.273Z,49.99
2022-07-29T20:33:56.976Z,50.02
2022-07-29T20:39:05.830Z,50.40
2022-07-29T20:44:15.365Z,50.38
2022-07-29T20:49:24.172Z,50.87
2022-07-29T20:54:32.534Z,51.00
2022-07-29T20:59:45.646Z,50.98
2022-07-29T21:04:55.602Z,51.15
2022-07-29T21:10:03.643Z,51.23
2022-07-29T21:15:14.290Z,51.50
2022-07-29T21:20:23.510Z,51.78
2022-07-29T21:25:34.867Z,51.94
2022-07-29T21:30:43.670Z,51.91
2022-07-29T21:36:20.292Z,52.02
2022-07-29T21:41:22.306Z,52.39
2022-07-29T21:46:30.150Z,52.71
2022-07-29T21:51:38.247Z,52.62
2022-07-29T21:56:51.077Z,52.66
2022-07-29T22:02:01.372Z,53.18
2022-07-29T22:07:09.487Z,53.29
2022-07-29T22:12:18.084Z,53.54
2022-07-29T22:17:26.280Z,53.58
2022-07-29T22:22:34.509Z,53.87
2022-07-29T22:27:43.401Z,54.26
2022-07-29T22:32:51.543Z,54.21
2022-07-29T22:37:59.500Z,54.49
2022-07-29T22:43:07.772Z,54.72
2022-07-29T22:48:15.950Z,54.77
2022-07-29T22:53:24.181Z,54.82
2022-07-29T22:58:32.350Z,54.90
2022-07-29T23:03:39.721Z,54.82
2022-07-29T23:08:47.846Z,55.23
2022-07-29T23:13:55.861Z,55.18
2022-07-29T23:19:03.782Z,55.16
2022-07-29T23:24:12.133Z,55.41
2022-07-29T23:29:19.978Z,55.66
2022-07-29T23:34:28.241Z,55.72
2022-07-29T23:39:36.299Z,56.16
2022-07-29T23:44:44.801Z,56.41
2022-07-29T23:49:52.777Z,56.43
2022-07-29T23:55:38.822Z,56.46
